sensor_id;sensor_type;location;lat;lon;timestamp;P1;durP1;ratioP1;P2;durP2;ratioP2
5391;SDS011;2719;53.624;9.786;2023-07-29T00:02:00;1.50;;;0.70;;
5391;SDS011;2719;53.624;9.786;2023-07-29T00:04:27;2.83;;;1.00;;
5391;SDS011;2719;53.624;9.786;2023-07-29T00:06:54;2.40;;;0.80;;
5391;SDS011;2719;53.624;9.786;2023-07-29T00:09:22;1.77;;;1.17;;
5391;SDS011;2719;53.624;9.786;2023-07-29T00:11:49;1.30;;;0.70;;
5391;SDS011;2719;53.624;9.786;2023-07-29T00:14:15;2.73;;;1.30;;
5391;SDS011;2719;53.624;9.786;2023-07-29T00:16:42;1.73;;;1.23;;
5391;SDS011;2719;53.624;9.786;2023-07-29T00:19:08;1.60;;;0.97;;
5391;SDS011;2719;53.624;9.786;2023-07-29T00:21:35;3.37;;;1.27;;
5391;SDS011;2719;53.624;9.786;2023-07-29T00:24:02;1.63;;;1.00;;
5391;SDS011;2719;53.624;9.786;2023-07-29T00:26:30;2.67;;;1.10;;
5391;SDS011;2719;53.624;9.786;2023-07-29T00:28:57;2.00;;;1.20;;
5391;SDS011;2719;53.624;9.786;2023-07-29T00:31:24;2.90;;;1.13;;
5391;SDS011;2719;53.624;9.786;2023-07-29T00:33:50;4.67;;;1.10;;
5391;SDS011;2719;53.624;9.786;2023-07-29T00:36:18;2.53;;;0.93;;
5391;SDS011;2719;53.624;9.786;2023-07-29T00:38:45;1.57;;;0.80;;
5391;SDS011;2719;53.624;9.786;2023-07-29T00:41:12;8.03;;;0.90;;
5391;SDS011;2719;53.624;9.786;2023-07-29T00:43:40;1.20;;;0.93;;
5391;SDS011;2719;53.624;9.786;2023-07-29T00:46:08;6.80;;;1.10;;
5391;SDS011;2719;53.624;9.786;2023-07-29T00:48:35;1.80;;;0.80;;
5391;SDS011;2719;53.624;9.786;2023-07-29T00:51:02;3.10;;;1.00;;
5391;SDS011;2719;53.624;9.786;2023-07-29T00:53:29;5.70;;;1.00;;
5391;SDS011;2719;53.624;9.786;2023-07-29T00:55:55;2.20;;;1.00;;
5391;SDS011;2719;53.624;9.786;2023-07-29T00:58:22;4.40;;;0.93;;
5391;SDS011;2719;53.624;9.786;2023-07-29T01:00:50;1.70;;;1.07;;
5391;SDS011;2719;53.624;9.786;2023-07-29T01:03:18;11.40;;;1.20;;
5391;SDS011;2719;53.624;9.786;2023-07-29T01:05:48;3.70;;;0.83;;
5391;SDS011;2719;53.624;9.786;2023-07-29T01:08:28;2.20;;;1.20;;
5391;SDS011;2719;53.624;9.786;2023-07-29T01:11:03;2.97;;;1.53;;
5391;SDS011;2719;53.624;9.786;2023-07-29T01:13:41;1.50;;;1.03;;
5391;SDS011;2719;53.624;9.786;2023-07-29T01:16:13;1.63;;;1.20;;
5391;SDS011;2719;53.624;9.786;2023-07-29T01:18:43;1.80;;;1.20;;
5391;SDS011;2719;53.624;9.786;2023-07-29T01:21:14;2.00;;;0.90;;
5391;SDS011;2719;53.624;9.786;2023-07-29T01:23:44;3.33;;;1.57;;
5391;SDS011;2719;53.624;9.786;2023-07-29T01:26:11;3.03;;;1.57;;
5391;SDS011;2719;53.624;9.786;2023-07-29T01:28:38;2.17;;;1.43;;
5391;SDS011;2719;53.624;9.786;2023-07-29T01:31:07;6.33;;;1.33;;
5391;SDS011;2719;53.624;9.786;2023-07-29T01:33:40;8.30;;;1.00;;
5391;SDS011;2719;53.624;9.786;2023-07-29T01:36:15;1.50;;;1.03;;
5391;SDS011;2719;53.624;9.786;2023-07-29T01:38:45;2.23;;;1.00;;
5391;SDS011;2719;53.624;9.786;2023-07-29T01:41:14;2.33;;;1.53;;
5391;SDS011;2719;53.624;9.786;2023-07-29T01:43:43;3.10;;;1.40;;
5391;SDS011;2719;53.624;9.786;2023-07-29T01:46:11;2.50;;;1.37;;
5391;SDS011;2719;53.624;9.786;2023-07-29T01:48:38;4.20;;;1.30;;
5391;SDS011;2719;53.624;9.786;2023-07-29T01:51:05;4.30;;;1.83;;
5391;SDS011;2719;53.624;9.786;2023-07-29T01:53:32;2.33;;;1.53;;
5391;SDS011;2719;53.624;9.786;2023-07-29T01:56:01;4.00;;;1.67;;
5391;SDS011;2719;53.624;9.786;2023-07-29T01:58:28;3.10;;;1.73;;
5391;SDS011;2719;53.624;9.786;2023-07-29T02:00:54;2.77;;;1.57;;
5391;SDS011;2719;53.624;9.786;2023-07-29T02:03:21;3.70;;;2.40;;
5391;SDS011;2719;53.624;9.786;2023-07-29T02:05:48;3.73;;;1.83;;
5391;SDS011;2719;53.624;9.786;2023-07-29T02:08:14;5.57;;;2.53;;
5391;SDS011;2719;53.624;9.786;2023-07-29T02:10:41;8.40;;;2.63;;
5391;SDS011;2719;53.624;9.786;2023-07-29T02:13:11;2.37;;;1.57;;
5391;SDS011;2719;53.624;9.786;2023-07-29T02:15:38;3.10;;;2.00;;
5391;SDS011;2719;53.624;9.786;2023-07-29T02:18:05;3.13;;;1.73;;
5391;SDS011;2719;53.624;9.786;2023-07-29T02:20:32;3.13;;;2.20;;
5391;SDS011;2719;53.624;9.786;2023-07-29T02:22:58;3.43;;;2.00;;
5391;SDS011;2719;53.624;9.786;2023-07-29T02:25:25;3.90;;;2.40;;
5391;SDS011;2719;53.624;9.786;2023-07-29T02:27:52;4.60;;;1.90;;
5391;SDS011;2719;53.624;9.786;2023-07-29T02:30:20;3.50;;;1.80;;
5391;SDS011;2719;53.624;9.786;2023-07-29T02:32:46;5.00;;;1.87;;
5391;SDS011;2719;53.624;9.786;2023-07-29T02:35:13;4.03;;;2.50;;
5391;SDS011;2719;53.624;9.786;2023-07-29T02:37:40;5.57;;;1.77;;
5391;SDS011;2719;53.624;9.786;2023-07-29T02:40:07;4.50;;;1.80;;
5391;SDS011;2719;53.624;9.786;2023-07-29T02:42:34;3.50;;;2.10;;
5391;SDS011;2719;53.624;9.786;2023-07-29T02:45:01;3.87;;;2.50;;
5391;SDS011;2719;53.624;9.786;2023-07-29T02:47:29;4.33;;;2.70;;
5391;SDS011;2719;53.624;9.786;2023-07-29T02:49:56;4.27;;;2.90;;
5391;SDS011;2719;53.624;9.786;2023-07-29T02:52:22;6.73;;;2.30;;
5391;SDS011;2719;53.624;9.786;2023-07-29T02:54:49;4.80;;;2.93;;
5391;SDS011;2719;53.624;9.786;2023-07-29T02:57:15;6.40;;;2.83;;
5391;SDS011;2719;53.624;9.786;2023-07-29T02:59:42;5.03;;;3.67;;
5391;SDS011;2719;53.624;9.786;2023-07-29T03:02:10;4.93;;;3.37;;
5391;SDS011;2719;53.624;9.786;2023-07-29T03:04:38;6.13;;;3.83;;
5391;SDS011;2719;53.624;9.786;2023-07-29T03:07:05;7.53;;;3.63;;
5391;SDS011;2719;53.624;9.786;2023-07-29T03:09:31;6.30;;;3.63;;
5391;SDS011;2719;53.624;9.786;2023-07-29T03:11:59;6.13;;;3.57;;
5391;SDS011;2719;53.624;9.786;2023-07-29T03:14:25;4.40;;;3.20;;
5391;SDS011;2719;53.624;9.786;2023-07-29T03:16:52;5.37;;;3.67;;
5391;SDS011;2719;53.624;9.786;2023-07-29T03:19:19;6.50;;;4.10;;
5391;SDS011;2719;53.624;9.786;2023-07-29T03:21:47;5.83;;;4.50;;
5391;SDS011;2719;53.624;9.786;2023-07-29T03:24:13;9.20;;;4.83;;
5391;SDS011;2719;53.624;9.786;2023-07-29T03:26:40;5.80;;;4.90;;
5391;SDS011;2719;53.624;9.786;2023-07-29T03:29:07;6.20;;;4.73;;
5391;SDS011;2719;53.624;9.786;2023-07-29T03:31:33;11.33;;;5.13;;
5391;SDS011;2719;53.624;9.786;2023-07-29T03:34:00;6.47;;;5.17;;
5391;SDS011;2719;53.624;9.786;2023-07-29T03:36:27;6.87;;;4.53;;
5391;SDS011;2719;53.624;9.786;2023-07-29T03:38:55;8.80;;;5.83;;
5391;SDS011;2719;53.624;9.786;2023-07-29T03:41:23;9.57;;;6.83;;
5391;SDS011;2719;53.624;9.786;2023-07-29T03:43:50;10.77;;;7.73;;
5391;SDS011;2719;53.624;9.786;2023-07-29T03:46:16;8.87;;;6.77;;
5391;SDS011;2719;53.624;9.786;2023-07-29T03:48:46;8.63;;;6.13;;
5391;SDS011;2719;53.624;9.786;2023-07-29T03:51:13;10.03;;;6.30;;
5391;SDS011;2719;53.624;9.786;2023-07-29T03:53:39;10.70;;;7.13;;
5391;SDS011;2719;53.624;9.786;2023-07-29T03:56:08;11.83;;;8.23;;
5391;SDS011;2719;53.624;9.786;2023-07-29T03:58:34;11.00;;;8.97;;
5391;SDS011;2719;53.624;9.786;2023-07-29T04:01:01;14.50;;;9.83;;
5391;SDS011;2719;53.624;9.786;2023-07-29T04:03:29;18.10;;;9.30;;
5391;SDS011;2719;53.624;9.786;2023-07-29T04:05:56;20.67;;;10.93;;
5391;SDS011;2719;53.624;9.786;2023-07-29T04:08:22;17.63;;;11.03;;
5391;SDS011;2719;53.624;9.786;2023-07-29T04:10:49;14.87;;;10.80;;
5391;SDS011;2719;53.624;9.786;2023-07-29T04:13:17;16.70;;;10.53;;
5391;SDS011;2719;53.624;9.786;2023-07-29T04:15:44;20.30;;;11.20;;
5391;SDS011;2719;53.624;9.786;2023-07-29T04:18:11;17.13;;;11.33;;
5391;SDS011;2719;53.624;9.786;2023-07-29T04:20:37;17.63;;;10.80;;
5391;SDS011;2719;53.624;9.786;2023-07-29T04:23:04;16.97;;;11.80;;
5391;SDS011;2719;53.624;9.786;2023-07-29T04:25:31;18.63;;;12.63;;
5391;SDS011;2719;53.624;9.786;2023-07-29T04:27:57;19.33;;;12.20;;
5391;SDS011;2719;53.624;9.786;2023-07-29T04:30:25;20.30;;;12.43;;
5391;SDS011;2719;53.624;9.786;2023-07-29T04:32:52;20.73;;;11.43;;
5391;SDS011;2719;53.624;9.786;2023-07-29T04:35:18;18.73;;;12.20;;
5391;SDS011;2719;53.624;9.786;2023-07-29T04:37:45;15.63;;;12.33;;
5391;SDS011;2719;53.624;9.786;2023-07-29T04:40:13;22.73;;;12.27;;
5391;SDS011;2719;53.624;9.786;2023-07-29T04:42:39;23.30;;;13.73;;
5391;SDS011;2719;53.624;9.786;2023-07-29T04:45:06;22.07;;;14.07;;
5391;SDS011;2719;53.624;9.786;2023-07-29T04:47:34;21.93;;;13.30;;
5391;SDS011;2719;53.624;9.786;2023-07-29T04:50:01;15.67;;;12.70;;
5391;SDS011;2719;53.624;9.786;2023-07-29T04:52:28;18.13;;;12.80;;
5391;SDS011;2719;53.624;9.786;2023-07-29T04:54:54;17.00;;;13.03;;
5391;SDS011;2719;53.624;9.786;2023-07-29T04:57:21;22.20;;;14.80;;
5391;SDS011;2719;53.624;9.786;2023-07-29T04:59:48;15.83;;;12.30;;
5391;SDS011;2719;53.624;9.786;2023-07-29T05:02:14;19.60;;;13.00;;
5391;SDS011;2719;53.624;9.786;2023-07-29T05:04:42;26.17;;;14.20;;
5391;SDS011;2719;53.624;9.786;2023-07-29T05:07:09;20.87;;;13.20;;
5391;SDS011;2719;53.624;9.786;2023-07-29T05:09:36;22.77;;;13.70;;
5391;SDS011;2719;53.624;9.786;2023-07-29T05:12:02;17.37;;;12.63;;
5391;SDS011;2719;53.624;9.786;2023-07-29T05:14:30;18.57;;;13.87;;
5391;SDS011;2719;53.624;9.786;2023-07-29T05:16:57;30.33;;;13.70;;
5391;SDS011;2719;53.624;9.786;2023-07-29T05:19:23;19.30;;;12.53;;
5391;SDS011;2719;53.624;9.786;2023-07-29T05:21:51;20.37;;;12.20;;
5391;SDS011;2719;53.624;9.786;2023-07-29T05:24:18;16.30;;;12.17;;
5391;SDS011;2719;53.624;9.786;2023-07-29T05:26:45;22.07;;;13.20;;
5391;SDS011;2719;53.624;9.786;2023-07-29T05:29:11;17.93;;;12.33;;
5391;SDS011;2719;53.624;9.786;2023-07-29T05:31:38;15.97;;;11.70;;
5391;SDS011;2719;53.624;9.786;2023-07-29T05:34:04;20.03;;;13.00;;
5391;SDS011;2719;53.624;9.786;2023-07-29T05:36:31;17.30;;;12.27;;
5391;SDS011;2719;53.624;9.786;2023-07-29T05:38:59;15.73;;;12.20;;
5391;SDS011;2719;53.624;9.786;2023-07-29T05:41:26;16.40;;;12.40;;
5391;SDS011;2719;53.624;9.786;2023-07-29T05:43:54;21.37;;;13.47;;
5391;SDS011;2719;53.624;9.786;2023-07-29T05:46:20;18.90;;;13.17;;
5391;SDS011;2719;53.624;9.786;2023-07-29T05:48:47;19.90;;;13.80;;
5391;SDS011;2719;53.624;9.786;2023-07-29T05:51:13;23.13;;;13.37;;
5391;SDS011;2719;53.624;9.786;2023-07-29T05:53:40;21.47;;;15.17;;
5391;SDS011;2719;53.624;9.786;2023-07-29T05:56:08;19.00;;;14.10;;
5391;SDS011;2719;53.624;9.786;2023-07-29T05:58:35;20.43;;;15.17;;
5391;SDS011;2719;53.624;9.786;2023-07-29T06:01:02;22.63;;;15.40;;
5391;SDS011;2719;53.624;9.786;2023-07-29T06:03:29;21.20;;;13.33;;
5391;SDS011;2719;53.624;9.786;2023-07-29T06:05:56;20.47;;;14.83;;
5391;SDS011;2719;53.624;9.786;2023-07-29T06:08:22;21.00;;;15.30;;
5391;SDS011;2719;53.624;9.786;2023-07-29T06:10:49;27.40;;;13.53;;
5391;SDS011;2719;53.624;9.786;2023-07-29T06:13:17;23.03;;;14.07;;
5391;SDS011;2719;53.624;9.786;2023-07-29T06:15:43;18.53;;;14.30;;
5391;SDS011;2719;53.624;9.786;2023-07-29T06:18:10;19.40;;;13.93;;
5391;SDS011;2719;53.624;9.786;2023-07-29T06:20:37;20.97;;;14.20;;
5391;SDS011;2719;53.624;9.786;2023-07-29T06:23:03;19.97;;;13.97;;
5391;SDS011;2719;53.624;9.786;2023-07-29T06:25:30;17.77;;;13.23;;
5391;SDS011;2719;53.624;9.786;2023-07-29T06:27:57;17.30;;;13.13;;
5391;SDS011;2719;53.624;9.786;2023-07-29T06:30:25;17.60;;;12.87;;
5391;SDS011;2719;53.624;9.786;2023-07-29T06:32:51;20.93;;;14.30;;
5391;SDS011;2719;53.624;9.786;2023-07-29T06:35:19;21.83;;;14.30;;
5391;SDS011;2719;53.624;9.786;2023-07-29T06:37:45;20.97;;;14.37;;
5391;SDS011;2719;53.624;9.786;2023-07-29T06:40:12;23.20;;;14.00;;
5391;SDS011;2719;53.624;9.786;2023-07-29T06:42:39;20.03;;;13.50;;
5391;SDS011;2719;53.624;9.786;2023-07-29T06:45:06;19.40;;;12.53;;
5391;SDS011;2719;53.624;9.786;2023-07-29T06:47:34;17.23;;;12.83;;
5391;SDS011;2719;53.624;9.786;2023-07-29T06:50:01;19.27;;;13.53;;
5391;SDS011;2719;53.624;9.786;2023-07-29T06:52:28;16.90;;;12.60;;
5391;SDS011;2719;53.624;9.786;2023-07-29T06:54:54;25.13;;;14.23;;
5391;SDS011;2719;53.624;9.786;2023-07-29T06:57:21;17.83;;;12.83;;
5391;SDS011;2719;53.624;9.786;2023-07-29T06:59:48;21.23;;;14.93;;
5391;SDS011;2719;53.624;9.786;2023-07-29T07:02:14;20.10;;;14.17;;
5391;SDS011;2719;53.624;9.786;2023-07-29T07:04:42;19.03;;;14.20;;
5391;SDS011;2719;53.624;9.786;2023-07-29T07:07:09;28.57;;;15.20;;
5391;SDS011;2719;53.624;9.786;2023-07-29T07:09:36;20.80;;;15.10;;
5391;SDS011;2719;53.624;9.786;2023-07-29T07:12:02;21.50;;;15.20;;
5391;SDS011;2719;53.624;9.786;2023-07-29T07:14:29;25.13;;;15.87;;
5391;SDS011;2719;53.624;9.786;2023-07-29T07:16:56;22.30;;;16.43;;
5391;SDS011;2719;53.624;9.786;2023-07-29T07:19:23;20.13;;;15.33;;
5391;SDS011;2719;53.624;9.786;2023-07-29T07:21:51;26.67;;;17.77;;
5391;SDS011;2719;53.624;9.786;2023-07-29T07:24:17;24.30;;;16.43;;
5391;SDS011;2719;53.624;9.786;2023-07-29T07:26:44;28.60;;;14.90;;
5391;SDS011;2719;53.624;9.786;2023-07-29T07:29:10;23.63;;;16.50;;
5391;SDS011;2719;53.624;9.786;2023-07-29T07:31:37;22.13;;;16.43;;
5391;SDS011;2719;53.624;9.786;2023-07-29T07:34:04;24.97;;;16.40;;
5391;SDS011;2719;53.624;9.786;2023-07-29T07:36:31;20.83;;;14.63;;
5391;SDS011;2719;53.624;9.786;2023-07-29T07:38:59;22.83;;;14.33;;
5391;SDS011;2719;53.624;9.786;2023-07-29T07:41:25;19.90;;;14.90;;
5391;SDS011;2719;53.624;9.786;2023-07-29T07:43:52;18.57;;;13.90;;
5391;SDS011;2719;53.624;9.786;2023-07-29T07:46:19;17.40;;;13.83;;
5391;SDS011;2719;53.624;9.786;2023-07-29T07:48:45;15.47;;;12.80;;
5391;SDS011;2719;53.624;9.786;2023-07-29T07:51:12;18.00;;;12.20;;
5391;SDS011;2719;53.624;9.786;2023-07-29T07:53:39;21.97;;;12.27;;
5391;SDS011;2719;53.624;9.786;2023-07-29T07:56:08;17.40;;;11.17;;
5391;SDS011;2719;53.624;9.786;2023-07-29T07:58:35;17.60;;;11.37;;
5391;SDS011;2719;53.624;9.786;2023-07-29T08:01:02;24.70;;;11.20;;
5391;SDS011;2719;53.624;9.786;2023-07-29T08:03:29;17.37;;;11.87;;
5391;SDS011;2719;53.624;9.786;2023-07-29T08:05:56;19.57;;;12.03;;
5391;SDS011;2719;53.624;9.786;2023-07-29T08:08:22;13.33;;;10.60;;
5391;SDS011;2719;53.624;9.786;2023-07-29T08:10:49;19.17;;;13.60;;
5391;SDS011;2719;53.624;9.786;2023-07-29T08:13:17;18.13;;;11.80;;
5391;SDS011;2719;53.624;9.786;2023-07-29T08:15:45;17.70;;;13.10;;
5391;SDS011;2719;53.624;9.786;2023-07-29T08:18:13;20.87;;;14.43;;
5391;SDS011;2719;53.624;9.786;2023-07-29T08:20:39;20.37;;;13.90;;
5391;SDS011;2719;53.624;9.786;2023-07-29T08:23:06;19.70;;;13.73;;
5391;SDS011;2719;53.624;9.786;2023-07-29T08:25:33;20.60;;;14.97;;
5391;SDS011;2719;53.624;9.786;2023-07-29T08:28:00;25.53;;;15.37;;
5391;SDS011;2719;53.624;9.786;2023-07-29T08:30:28;23.43;;;17.33;;
5391;SDS011;2719;53.624;9.786;2023-07-29T08:32:55;27.00;;;18.60;;
5391;SDS011;2719;53.624;9.786;2023-07-29T08:35:21;30.73;;;18.10;;
5391;SDS011;2719;53.624;9.786;2023-07-29T08:37:48;27.13;;;18.40;;
5391;SDS011;2719;53.624;9.786;2023-07-29T08:40:15;29.53;;;18.10;;
5391;SDS011;2719;53.624;9.786;2023-07-29T08:42:41;29.60;;;19.27;;
5391;SDS011;2719;53.624;9.786;2023-07-29T08:45:12;26.37;;;18.03;;
5391;SDS011;2719;53.624;9.786;2023-07-29T08:47:41;27.43;;;18.10;;
5391;SDS011;2719;53.624;9.786;2023-07-29T08:50:08;29.23;;;19.03;;
5391;SDS011;2719;53.624;9.786;2023-07-29T08:52:35;25.67;;;16.83;;
5391;SDS011;2719;53.624;9.786;2023-07-29T08:55:03;25.77;;;16.67;;
5391;SDS011;2719;53.624;9.786;2023-07-29T08:57:31;25.00;;;16.70;;
5391;SDS011;2719;53.624;9.786;2023-07-29T08:59:57;26.00;;;15.67;;
5391;SDS011;2719;53.624;9.786;2023-07-29T09:02:24;22.90;;;15.77;;
5391;SDS011;2719;53.624;9.786;2023-07-29T09:04:52;21.53;;;14.00;;
5391;SDS011;2719;53.624;9.786;2023-07-29T09:07:19;24.03;;;15.27;;
5391;SDS011;2719;53.624;9.786;2023-07-29T09:09:46;19.97;;;15.00;;
5391;SDS011;2719;53.624;9.786;2023-07-29T09:12:13;19.70;;;14.73;;
5391;SDS011;2719;53.624;9.786;2023-07-29T09:14:40;16.47;;;12.90;;
5391;SDS011;2719;53.624;9.786;2023-07-29T09:17:07;18.10;;;14.10;;
5391;SDS011;2719;53.624;9.786;2023-07-29T09:19:34;15.57;;;11.43;;
5391;SDS011;2719;53.624;9.786;2023-07-29T09:22:02;15.17;;;12.27;;
5391;SDS011;2719;53.624;9.786;2023-07-29T09:24:29;16.63;;;12.43;;
5391;SDS011;2719;53.624;9.786;2023-07-29T09:26:57;16.03;;;11.97;;
5391;SDS011;2719;53.624;9.786;2023-07-29T09:29:27;17.60;;;11.33;;
5391;SDS011;2719;53.624;9.786;2023-07-29T09:31:54;18.47;;;11.60;;
5391;SDS011;2719;53.624;9.786;2023-07-29T09:34:41;24.93;;;11.97;;
5391;SDS011;2719;53.624;9.786;2023-07-29T09:37:09;13.33;;;10.70;;
5391;SDS011;2719;53.624;9.786;2023-07-29T09:39:42;15.07;;;11.13;;
5391;SDS011;2719;53.624;9.786;2023-07-29T09:42:11;16.20;;;10.90;;
5391;SDS011;2719;53.624;9.786;2023-07-29T09:44:43;12.63;;;9.53;;
5391;SDS011;2719;53.624;9.786;2023-07-29T09:47:18;11.67;;;8.90;;
5391;SDS011;2719;53.624;9.786;2023-07-29T09:49:45;12.10;;;9.00;;
5391;SDS011;2719;53.624;9.786;2023-07-29T09:52:15;13.93;;;8.80;;
5391;SDS011;2719;53.624;9.786;2023-07-29T09:54:42;14.60;;;8.00;;
5391;SDS011;2719;53.624;9.786;2023-07-29T09:57:10;15.17;;;7.90;;
5391;SDS011;2719;53.624;9.786;2023-07-29T09:59:37;13.17;;;7.90;;
5391;SDS011;2719;53.624;9.786;2023-07-29T10:02:03;10.57;;;7.60;;
5391;SDS011;2719;53.624;9.786;2023-07-29T10:04:30;11.60;;;6.37;;
5391;SDS011;2719;53.624;9.786;2023-07-29T10:06:58;7.70;;;5.20;;
5391;SDS011;2719;53.624;9.786;2023-07-29T10:09:28;10.50;;;6.17;;
5391;SDS011;2719;53.624;9.786;2023-07-29T10:11:55;7.97;;;4.50;;
5391;SDS011;2719;53.624;9.786;2023-07-29T10:14:23;9.33;;;4.60;;
5391;SDS011;2719;53.624;9.786;2023-07-29T10:16:51;10.27;;;4.17;;
5391;SDS011;2719;53.624;9.786;2023-07-29T10:19:19;7.53;;;4.03;;
5391;SDS011;2719;53.624;9.786;2023-07-29T10:21:48;5.67;;;3.23;;
5391;SDS011;2719;53.624;9.786;2023-07-29T10:24:15;6.10;;;3.57;;
5391;SDS011;2719;53.624;9.786;2023-07-29T10:26:49;4.47;;;2.30;;
5391;SDS011;2719;53.624;9.786;2023-07-29T10:29:17;3.17;;;2.40;;
5391;SDS011;2719;53.624;9.786;2023-07-29T10:31:46;4.27;;;2.97;;
5391;SDS011;2719;53.624;9.786;2023-07-29T10:34:13;2.50;;;1.63;;
5391;SDS011;2719;53.624;9.786;2023-07-29T10:36:40;7.90;;;1.37;;
5391;SDS011;2719;53.624;9.786;2023-07-29T10:39:08;1.30;;;0.80;;
5391;SDS011;2719;53.624;9.786;2023-07-29T10:41:56;1.90;;;0.87;;
5391;SDS011;2719;53.624;9.786;2023-07-29T10:47:18;1.67;;;1.07;;
5391;SDS011;2719;53.624;9.786;2023-07-29T10:49:47;1.37;;;0.80;;
5391;SDS011;2719;53.624;9.786;2023-07-29T10:52:16;2.33;;;0.70;;
5391;SDS011;2719;53.624;9.786;2023-07-29T10:54:53;5.30;;;1.10;;
5391;SDS011;2719;53.624;9.786;2023-07-29T10:57:29;2.77;;;0.87;;
5391;SDS011;2719;53.624;9.786;2023-07-29T10:59:58;1.33;;;0.87;;
5391;SDS011;2719;53.624;9.786;2023-07-29T11:02:28;2.30;;;0.80;;
5391;SDS011;2719;53.624;9.786;2023-07-29T11:04:56;2.40;;;1.30;;
5391;SDS011;2719;53.624;9.786;2023-07-29T11:07:25;2.43;;;1.40;;
5391;SDS011;2719;53.624;9.786;2023-07-29T11:09:53;4.10;;;1.93;;
5391;SDS011;2719;53.624;9.786;2023-07-29T11:12:41;5.10;;;1.87;;
5391;SDS011;2719;53.624;9.786;2023-07-29T11:15:17;8.30;;;3.07;;
5391;SDS011;2719;53.624;9.786;2023-07-29T11:17:46;3.80;;;2.70;;
5391;SDS011;2719;53.624;9.786;2023-07-29T11:20:15;7.43;;;2.80;;
5391;SDS011;2719;53.624;9.786;2023-07-29T11:22:42;4.10;;;2.10;;
5391;SDS011;2719;53.624;9.786;2023-07-29T11:25:10;4.47;;;2.57;;
5391;SDS011;2719;53.624;9.786;2023-07-29T11:27:38;3.77;;;2.03;;
5391;SDS011;2719;53.624;9.786;2023-07-29T11:30:07;6.03;;;2.03;;
5391;SDS011;2719;53.624;9.786;2023-07-29T11:32:36;7.60;;;2.17;;
5391;SDS011;2719;53.624;9.786;2023-07-29T11:35:03;2.50;;;1.80;;
5391;SDS011;2719;53.624;9.786;2023-07-29T11:37:32;3.70;;;1.97;;
5391;SDS011;2719;53.624;9.786;2023-07-29T11:39:59;2.97;;;1.77;;
5391;SDS011;2719;53.624;9.786;2023-07-29T11:42:27;2.30;;;1.67;;
5391;SDS011;2719;53.624;9.786;2023-07-29T11:44:56;3.00;;;2.10;;
5391;SDS011;2719;53.624;9.786;2023-07-29T11:47:25;2.23;;;1.40;;
5391;SDS011;2719;53.624;9.786;2023-07-29T11:49:52;2.60;;;1.27;;
5391;SDS011;2719;53.624;9.786;2023-07-29T11:52:19;3.23;;;1.10;;
5391;SDS011;2719;53.624;9.786;2023-07-29T11:54:46;1.80;;;1.20;;
5391;SDS011;2719;53.624;9.786;2023-07-29T11:57:14;5.33;;;1.20;;
5391;SDS011;2719;53.624;9.786;2023-07-29T11:59:43;4.53;;;1.30;;
5391;SDS011;2719;53.624;9.786;2023-07-29T12:02:10;2.00;;;1.20;;
5391;SDS011;2719;53.624;9.786;2023-07-29T12:04:40;5.47;;;1.13;;
5391;SDS011;2719;53.624;9.786;2023-07-29T12:07:07;2.17;;;1.30;;
5391;SDS011;2719;53.624;9.786;2023-07-29T12:09:34;1.60;;;0.90;;
5391;SDS011;2719;53.624;9.786;2023-07-29T12:12:02;7.13;;;1.00;;
5391;SDS011;2719;53.624;9.786;2023-07-29T12:14:30;2.00;;;1.00;;
5391;SDS011;2719;53.624;9.786;2023-07-29T12:16:59;1.80;;;1.00;;
5391;SDS011;2719;53.624;9.786;2023-07-29T12:19:31;1.37;;;0.80;;
5391;SDS011;2719;53.624;9.786;2023-07-29T12:21:59;1.63;;;1.00;;
5391;SDS011;2719;53.624;9.786;2023-07-29T12:24:26;2.00;;;0.80;;
5391;SDS011;2719;53.624;9.786;2023-07-29T12:26:53;2.93;;;0.70;;
5391;SDS011;2719;53.624;9.786;2023-07-29T12:29:19;2.10;;;1.00;;
5391;SDS011;2719;53.624;9.786;2023-07-29T12:31:46;1.87;;;0.67;;
5391;SDS011;2719;53.624;9.786;2023-07-29T12:34:17;1.30;;;0.80;;
5391;SDS011;2719;53.624;9.786;2023-07-29T12:36:46;1.30;;;0.60;;
5391;SDS011;2719;53.624;9.786;2023-07-29T12:39:19;1.23;;;0.60;;
5391;SDS011;2719;53.624;9.786;2023-07-29T12:41:47;3.97;;;1.00;;
5391;SDS011;2719;53.624;9.786;2023-07-29T12:44:14;1.00;;;0.60;;
5391;SDS011;2719;53.624;9.786;2023-07-29T12:46:41;2.30;;;1.07;;
5391;SDS011;2719;53.624;9.786;2023-07-29T12:49:07;1.37;;;0.73;;
5391;SDS011;2719;53.624;9.786;2023-07-29T12:51:34;1.70;;;0.70;;
5391;SDS011;2719;53.624;9.786;2023-07-29T12:54:02;1.13;;;0.70;;
5391;SDS011;2719;53.624;9.786;2023-07-29T12:56:30;1.70;;;0.80;;
5391;SDS011;2719;53.624;9.786;2023-07-29T12:58:57;2.43;;;0.70;;
5391;SDS011;2719;53.624;9.786;2023-07-29T13:01:24;1.60;;;0.87;;
5391;SDS011;2719;53.624;9.786;2023-07-29T13:03:51;1.53;;;0.80;;
5391;SDS011;2719;53.624;9.786;2023-07-29T13:06:18;1.70;;;1.17;;
5391;SDS011;2719;53.624;9.786;2023-07-29T13:08:45;3.23;;;0.70;;
5391;SDS011;2719;53.624;9.786;2023-07-29T13:11:13;1.00;;;0.80;;
5391;SDS011;2719;53.624;9.786;2023-07-29T13:13:42;3.57;;;0.80;;
5391;SDS011;2719;53.624;9.786;2023-07-29T13:16:10;2.70;;;1.03;;
5391;SDS011;2719;53.624;9.786;2023-07-29T13:18:37;1.57;;;0.90;;
5391;SDS011;2719;53.624;9.786;2023-07-29T13:21:04;2.63;;;0.77;;
5391;SDS011;2719;53.624;9.786;2023-07-29T13:23:31;1.53;;;0.80;;
5391;SDS011;2719;53.624;9.786;2023-07-29T13:25:57;4.03;;;0.90;;
5391;SDS011;2719;53.624;9.786;2023-07-29T13:28:24;4.27;;;0.60;;
5391;SDS011;2719;53.624;9.786;2023-07-29T13:30:52;1.47;;;0.70;;
5391;SDS011;2719;53.624;9.786;2023-07-29T13:33:19;6.60;;;0.83;;
5391;SDS011;2719;53.624;9.786;2023-07-29T13:35:46;3.83;;;0.90;;
5391;SDS011;2719;53.624;9.786;2023-07-29T13:38:12;1.73;;;0.80;;
5391;SDS011;2719;53.624;9.786;2023-07-29T13:40:39;1.20;;;0.70;;
5391;SDS011;2719;53.624;9.786;2023-07-29T13:43:05;1.00;;;0.63;;
5391;SDS011;2719;53.624;9.786;2023-07-29T13:45:33;1.87;;;0.67;;
5391;SDS011;2719;53.624;9.786;2023-07-29T13:48:01;2.50;;;0.80;;
5391;SDS011;2719;53.624;9.786;2023-07-29T13:50:28;2.60;;;0.70;;
5391;SDS011;2719;53.624;9.786;2023-07-29T13:52:55;1.77;;;0.93;;
5391;SDS011;2719;53.624;9.786;2023-07-29T13:55:21;2.47;;;0.60;;
5391;SDS011;2719;53.624;9.786;2023-07-29T13:57:48;3.00;;;1.00;;
5391;SDS011;2719;53.624;9.786;2023-07-29T14:00:15;1.00;;;0.63;;
5391;SDS011;2719;53.624;9.786;2023-07-29T14:02:41;2.63;;;0.70;;
5391;SDS011;2719;53.624;9.786;2023-07-29T14:05:09;2.60;;;1.03;;
5391;SDS011;2719;53.624;9.786;2023-07-29T14:07:36;2.03;;;0.60;;
5391;SDS011;2719;53.624;9.786;2023-07-29T14:10:03;5.10;;;0.90;;
5391;SDS011;2719;53.624;9.786;2023-07-29T14:12:30;1.30;;;0.70;;
5391;SDS011;2719;53.624;9.786;2023-07-29T14:14:57;5.90;;;1.13;;
5391;SDS011;2719;53.624;9.786;2023-07-29T14:17:24;1.00;;;0.70;;
5391;SDS011;2719;53.624;9.786;2023-07-29T14:19:50;2.70;;;0.80;;
5391;SDS011;2719;53.624;9.786;2023-07-29T14:22:18;0.90;;;0.60;;
5391;SDS011;2719;53.624;9.786;2023-07-29T14:24:45;2.03;;;1.10;;
5391;SDS011;2719;53.624;9.786;2023-07-29T14:27:12;1.60;;;0.70;;
5391;SDS011;2719;53.624;9.786;2023-07-29T14:29:39;1.60;;;0.80;;
5391;SDS011;2719;53.624;9.786;2023-07-29T14:32:06;2.20;;;0.97;;
5391;SDS011;2719;53.624;9.786;2023-07-29T14:34:32;1.67;;;0.90;;
5391;SDS011;2719;53.624;9.786;2023-07-29T14:36:59;3.23;;;1.00;;
5391;SDS011;2719;53.624;9.786;2023-07-29T14:39:27;3.03;;;0.70;;
5391;SDS011;2719;53.624;9.786;2023-07-29T14:41:54;1.40;;;0.67;;
5391;SDS011;2719;53.624;9.786;2023-07-29T14:44:20;1.50;;;0.83;;
5391;SDS011;2719;53.624;9.786;2023-07-29T14:46:47;7.27;;;0.80;;
5391;SDS011;2719;53.624;9.786;2023-07-29T14:49:14;1.53;;;0.83;;
5391;SDS011;2719;53.624;9.786;2023-07-29T14:51:40;3.33;;;0.80;;
5391;SDS011;2719;53.624;9.786;2023-07-29T14:54:07;3.13;;;0.60;;
5391;SDS011;2719;53.624;9.786;2023-07-29T14:56:35;2.87;;;0.90;;
5391;SDS011;2719;53.624;9.786;2023-07-29T14:59:02;1.67;;;0.70;;
5391;SDS011;2719;53.624;9.786;2023-07-29T15:01:28;1.20;;;0.70;;
5391;SDS011;2719;53.624;9.786;2023-07-29T15:03:55;2.50;;;0.80;;
5391;SDS011;2719;53.624;9.786;2023-07-29T15:06:21;4.90;;;1.00;;
5391;SDS011;2719;53.624;9.786;2023-07-29T15:08:48;2.37;;;0.77;;
5391;SDS011;2719;53.624;9.786;2023-07-29T15:11:15;1.40;;;0.80;;